Time;durP1;ratioP1;P1;durP2;ratioP2;P2;SDS_P1;SDS_P2;PMS_P1;PMS_P2;Temp;Humidity;BMP_temperature;BMP_pressure;BME280_temperature;BME280_humidity;BME280_pressure;Samples;Min_cycle;Max_cycle;Signal;HPM_P1;HPM_P2
2021/05/14 00:02:05;;;;;;;16.60;4.22;;;;;;;12.80;87.47;98058.59;1734789;82;21057;-76
2021/05/14 00:04:32;;;;;;;9.75;4.00;;;;;;;12.83;86.70;98049.76;1733671;82;21619;-77
2021/05/14 00:06:58;;;;;;;7.67;4.50;;;;;;;12.79;87.71;98054.75;1732481;82;21092;-78
2021/05/14 00:09:25;;;;;;;8.90;4.60;;;;;;;12.75;87.56;98048.84;1733777;82;21004;-79
2021/05/14 00:11:52;;;;;;;7.55;5.08;;;;;;;12.74;88.17;98053.69;1731553;82;21087;-79
2021/05/14 00:14:18;;;;;;;9.80;5.70;;;;;;;12.66;89.28;98061.06;1735738;82;21060;-79
2021/05/14 00:16:45;;;;;;;8.15;5.20;;;;;;;12.69;88.13;98055.67;1729550;82;21077;-79
2021/05/14 00:19:11;;;;;;;9.83;5.75;;;;;;;12.63;89.54;98049.46;1736263;82;21592;-79
2021/05/14 00:21:38;;;;;;;9.35;5.78;;;;;;;12.63;88.05;98061.20;1729755;82;21077;-79
2021/05/14 00:24:06;;;;;;;10.58;6.00;;;;;;;12.61;89.54;98057.82;1737026;82;21008;-79
2021/05/14 00:26:33;;;;;;;9.03;5.67;;;;;;;12.66;88.10;98057.98;1729159;82;21639;-79
2021/05/14 00:28:59;;;;;;;9.00;5.85;;;;;;;12.63;89.96;98061.20;1729598;82;21060;-78
2021/05/14 00:31:26;;;;;;;11.30;5.92;;;;;;;12.69;88.82;98063.49;1729035;82;21049;-79
2021/05/14 00:33:52;;;;;;;15.15;5.78;;;;;;;12.68;89.97;98065.27;1734569;82;21052;-82
2021/05/14 00:36:19;;;;;;;9.28;5.42;;;;;;;12.66;90.09;98067.58;1735557;82;21172;-78
2021/05/14 00:38:45;;;;;;;15.45;6.40;;;;;;;12.73;87.63;98071.55;1741054;82;21953;-78
2021/05/14 00:41:12;;;;;;;11.78;5.78;;;;;;;12.65;89.92;98068.48;1739229;82;21101;-78
2021/05/14 00:43:38;;;;;;;12.45;5.95;;;;;;;12.67;90.24;98070.11;1739382;82;21065;-79
2021/05/14 00:46:05;;;;;;;17.52;6.75;;;;;;;12.74;89.19;98073.25;1732283;82;21552;-78
2021/05/14 00:48:34;;;;;;;12.80;6.42;;;;;;;12.69;89.98;98070.88;1734015;82;21083;-77
2021/05/14 00:51:00;;;;;;;11.08;6.50;;;;;;;12.68;90.06;98073.09;1742803;82;21084;-79
2021/05/14 00:53:26;;;;;;;10.63;6.28;;;;;;;12.70;89.76;98073.02;1737808;82;21716;-77
2021/05/14 00:55:53;;;;;;;11.45;5.53;;;;;;;12.70;89.58;98075.16;1734036;82;21052;-79
2021/05/14 00:58:19;;;;;;;10.80;6.10;;;;;;;12.70;90.00;98074.33;1732787;82;21132;-78
2021/05/14 01:00:46;;;;;;;10.15;5.65;;;;;;;12.64;90.18;98067.64;1735576;82;21112;-78
2021/05/14 01:03:15;;;;;;;9.38;5.42;;;;;;;12.71;89.28;98076.00;1725549;82;22140;-76
2021/05/14 01:05:42;;;;;;;6.00;3.75;;;;;;;12.68;89.11;98078.77;1737054;82;21021;-79
2021/05/14 01:08:10;;;;;;;6.72;4.67;;;;;;;12.65;89.52;98076.30;1728715;82;21029;-78
2021/05/14 01:10:37;;;;;;;7.35;4.47;;;;;;;12.67;89.33;98079.67;1731436;82;21035;-78
2021/05/14 01:13:05;;;;;;;5.80;3.80;;;;;;;12.61;89.86;98081.29;1732068;82;21033;-79
2021/05/14 01:15:32;;;;;;;9.83;4.00;;;;;;;12.63;89.63;98074.23;1731688;82;21044;-80
2021/05/14 01:17:58;;;;;;;7.05;3.50;;;;;;;12.63;89.15;98075.53;1731485;82;21087;-78
2021/05/14 01:20:28;;;;;;;9.50;4.47;;;;;;;12.56;89.99;98076.31;1733930;82;21568;-78
2021/05/14 01:22:55;;;;;;;8.33;4.42;;;;;;;12.59;88.97;98073.53;1733765;82;21365;-79
2021/05/14 01:25:22;;;;;;;11.38;5.12;;;;;;;12.61;88.80;98065.64;1729264;82;21071;-79
2021/05/14 01:27:48;;;;;;;15.03;6.08;;;;;;;12.59;89.48;98068.32;1731660;82;21034;-80
2021/05/14 01:30:17;;;;;;;12.95;6.42;;;;;;;12.62;89.22;98066.05;1731949;82;21125;-79
2021/05/14 01:32:44;;;;;;;15.43;6.28;;;;;;;12.60;89.22;98061.37;1700181;83;21028;-80
2021/05/14 01:35:11;;;;;;;13.68;6.20;;;;;;;12.57;89.73;98068.02;1716993;83;21088;-78
2021/05/14 01:37:40;;;;;;;15.03;5.70;;;;;;;12.60;88.58;98069.19;1698666;83;21021;-77
2021/05/14 01:40:08;;;;;;;9.48;5.35;;;;;;;12.59;88.76;98063.11;1715099;83;21056;-79
2021/05/14 01:42:34;;;;;;;13.55;5.47;;;;;;;12.57;88.99;98061.03;1698284;83;21545;-79
2021/05/14 01:45:01;;;;;;;14.40;5.20;;;;;;;12.56;89.06;98064.58;1711482;83;22247;-80
2021/05/14 01:47:27;;;;;;;9.18;5.00;;;;;;;12.59;88.90;98068.79;1695050;83;21012;-81
2021/05/14 01:49:54;;;;;;;10.60;4.65;;;;;;;12.59;88.45;98067.48;1710411;83;21056;-78
2021/05/14 01:52:20;;;;;;;10.78;3.87;;;;;;;12.55;89.05;98061.58;1693832;82;21040;-80
2021/05/14 01:54:47;;;;;;;7.92;4.28;;;;;;;12.51;89.23;98063.95;1697666;84;21059;-79
2021/05/14 01:57:14;;;;;;;11.38;5.08;;;;;;;12.51;89.14;98062.21;1690170;83;21051;-79
2021/05/14 01:59:40;;;;;;;8.45;3.62;;;;;;;12.51;88.82;98062.64;1686794;83;21040;-79
2021/05/14 02:02:07;;;;;;;9.25;3.90;;;;;;;12.48;89.76;98063.65;1713022;83;21036;-80
2021/05/14 02:04:33;;;;;;;8.18;3.75;;;;;;;12.46;89.71;98062.05;1702997;83;21627;-79
2021/05/14 02:07:00;;;;;;;13.70;3.87;;;;;;;12.46;89.90;98058.97;1702551;83;21374;-79
2021/05/14 02:09:26;;;;;;;7.00;3.67;;;;;;;12.48;90.03;98062.34;1691424;83;21603;-78
2021/05/14 02:11:53;;;;;;;7.10;3.60;;;;;;;12.49;89.84;98064.48;1696821;83;21100;-78
2021/05/14 02:14:19;;;;;;;6.80;3.35;;;;;;;12.43;90.61;98064.33;1704205;83;21087;-79
2021/05/14 02:16:46;;;;;;;6.10;3.27;;;;;;;12.50;89.28;98062.28;1697999;83;21055;-80
2021/05/14 02:19:13;;;;;;;6.92;3.27;;;;;;;12.54;88.74;98066.42;1717850;82;21052;-78
2021/05/14 02:21:40;;;;;;;7.60;3.42;;;;;;;12.53;88.71;98066.89;1703884;82;21071;-79
2021/05/14 02:24:08;;;;;;;8.68;3.30;;;;;;;12.48;89.70;98065.42;1724928;83;21072;-78
2021/05/14 02:26:35;;;;;;;6.28;2.67;;;;;;;12.50;89.26;98066.19;1704836;83;21643;-78
2021/05/14 02:29:04;;;;;;;8.18;3.20;;;;;;;12.46;89.18;98066.80;1704942;83;21088;-79
2021/05/14 02:31:31;;;;;;;5.87;2.83;;;;;;;12.47;89.10;98066.33;1713645;83;21114;-79
2021/05/14 02:33:58;;;;;;;9.43;2.87;;;;;;;12.50;87.70;98069.63;1709419;83;21031;-79
2021/05/14 02:36:24;;;;;;;6.28;2.47;;;;;;;12.49;88.56;98072.30;1716344;83;21103;-78
2021/05/14 02:38:51;;;;;;;7.97;3.20;;;;;;;12.45;88.91;98069.00;1717287;83;21068;-79
2021/05/14 02:41:18;;;;;;;11.20;3.37;;;;;;;12.43;89.23;98070.00;1716569;83;21099;-79
2021/05/14 02:43:45;;;;;;;6.12;2.98;;;;;;;12.43;89.83;98067.39;1714936;83;21386;-80
2021/05/14 02:46:12;;;;;;;8.90;3.25;;;;;;;12.48;88.66;98073.24;1716300;83;21012;-78
2021/05/14 02:48:38;;;;;;;6.30;3.20;;;;;;;12.41;89.58;98071.38;1716099;83;21080;-79
2021/05/14 02:51:06;;;;;;;5.95;3.10;;;;;;;12.35;90.36;98070.38;1718647;83;21064;-80
2021/05/14 02:53:34;;;;;;;8.18;3.40;;;;;;;12.40;89.60;98074.91;1714659;83;21068;-80
2021/05/14 02:56:00;;;;;;;8.98;3.27;;;;;;;12.41;90.09;98073.98;1721056;83;21865;-80
2021/05/14 02:58:27;;;;;;;9.08;3.50;;;;;;;12.44;88.76;98080.83;1715518;83;21062;-78
2021/05/14 03:00:53;;;;;;;8.23;3.17;;;;;;;12.45;89.49;98074.21;1718384;83;21047;-78
2021/05/14 03:03:20;;;;;;;7.22;3.10;;;;;;;12.46;90.16;98081.59;1714047;83;21096;-79
2021/05/14 03:05:47;;;;;;;5.87;2.83;;;;;;;12.51;88.01;98080.45;1719472;83;21043;-78
2021/05/14 03:08:13;;;;;;;5.50;3.08;;;;;;;12.49;89.49;98079.69;1707618;83;21099;-79
2021/05/14 03:10:39;;;;;;;5.65;3.02;;;;;;;12.50;89.16;98078.76;1719892;83;21043;-79
2021/05/14 03:13:06;;;;;;;6.33;3.10;;;;;;;12.41;89.87;98078.36;1714021;83;21622;-79
2021/05/14 03:15:32;;;;;;;6.33;3.02;;;;;;;12.50;89.22;98084.44;1719745;83;21078;-79
2021/05/14 03:17:59;;;;;;;7.42;3.30;;;;;;;12.47;89.46;98088.05;1712434;83;21027;-78
2021/05/14 03:20:26;;;;;;;6.35;3.40;;;;;;;12.45;89.64;98086.41;1720381;83;21032;-79
2021/05/14 03:22:52;;;;;;;7.58;3.05;;;;;;;12.48;88.59;98091.48;1711817;83;21032;-79
2021/05/14 03:25:19;;;;;;;6.75;3.22;;;;;;;12.47;88.29;98092.39;1720294;83;21626;-78
2021/05/14 03:27:45;;;;;;;6.97;3.12;;;;;;;12.46;88.91;98096.77;1713099;83;21020;-79
2021/05/14 03:30:13;;;;;;;6.47;3.08;;;;;;;12.49;89.03;98091.86;1723127;82;21088;-78
2021/05/14 03:32:40;;;;;;;10.30;3.22;;;;;;;12.50;88.78;98097.47;1731542;82;21814;-79
2021/05/14 03:35:08;;;;;;;12.28;3.55;;;;;;;12.54;88.88;98087.27;1738070;82;21695;-78
2021/05/14 03:37:35;;;;;;;8.00;3.50;;;;;;;12.57;88.39;98097.53;1727247;82;21048;-78
2021/05/14 03:40:15;;;;;;;9.30;3.67;;;;;;;12.65;87.35;98102.38;1733757;81;21084;-79
2021/05/14 03:42:33;;;;;;;9.13;3.77;;;;;;;12.70;87.47;98106.92;1694820;83;22427;-80
2021/05/14 03:44:59;;;;;;;7.62;3.17;;;;;;;12.76;86.81;98109.22;1741175;82;21004;-79
2021/05/14 03:47:26;;;;;;;10.60;3.67;;;;;;;12.77;86.82;98110.06;1705761;80;21061;-79
2021/05/14 03:49:52;;;;;;;12.23;3.20;;;;;;;12.81;86.43;98106.38;1738616;82;21053;-78
2021/05/14 03:52:19;;;;;;;6.62;2.62;;;;;;;12.86;86.08;98114.36;1701490;82;21065;-79
2021/05/14 03:54:45;;;;;;;7.17;2.60;;;;;;;12.89;85.92;98112.91;1738767;82;21028;-77
2021/05/14 03:57:12;;;;;;;5.33;2.70;;;;;;;12.94;85.41;98108.30;1699916;83;21145;-79
2021/05/14 03:59:39;;;;;;;6.70;2.77;;;;;;;12.92;86.05;98104.08;1695130;83;21056;-80
2021/05/14 04:02:05;;;;;;;5.97;2.60;;;;;;;12.90;86.01;98104.16;1731458;82;21620;-79
2021/05/14 04:04:32;;;;;;;4.50;2.40;;;;;;;12.96;85.23;98109.99;1742028;82;21931;-79
2021/05/14 04:07:02;;;;;;;5.15;2.27;;;;;;;12.94;85.57;98110.06;1700843;83;21584;-79
2021/05/14 04:09:32;;;;;;;15.45;2.80;;;;;;;12.94;84.98;98105.69;1704488;82;21388;-78
2021/05/14 04:14:31;;;;;;;4.78;2.40;;;;;;;13.00;84.85;98108.45;1728823;82;21599;-78
2021/05/14 04:17:02;;;;;;;7.33;2.45;;;;;;;13.03;84.59;98109.61;1701079;83;21619;-78
2021/05/14 04:19:29;;;;;;;12.90;2.67;;;;;;;13.06;84.52;98117.73;1701969;83;21041;-81
2021/05/14 04:21:57;;;;;;;7.85;2.67;;;;;;;13.06;84.87;98117.27;1736387;82;21053;-81
2021/05/14 04:24:26;;;;;;;9.85;2.70;;;;;;;13.12;84.69;98126.08;1732343;82;22332;-80
2021/05/14 04:26:56;;;;;;;5.97;2.42;;;;;;;13.17;85.21;98119.78;1699802;82;21006;-78
2021/05/14 04:29:23;;;;;;;14.03;3.00;;;;;;;13.22;84.73;98121.24;1737276;82;21072;-78
2021/05/14 04:31:50;;;;;;;13.58;2.90;;;;;;;13.20;85.30;98123.55;1706113;82;21069;-79
2021/05/14 04:34:19;;;;;;;8.90;3.10;;;;;;;13.26;85.01;98127.98;1705021;82;21064;-78
2021/05/14 04:36:47;;;;;;;11.15;3.75;;;;;;;13.28;84.89;98124.84;1731166;82;22296;-79
2021/05/14 04:39:14;;;;;;;10.38;3.72;;;;;;;13.26;84.79;98127.16;1710191;83;21596;-80
2021/05/14 04:41:41;;;;;;;6.90;3.85;;;;;;;13.27;85.26;98133.61;1702396;83;21073;-78
2021/05/14 04:44:08;;;;;;;15.58;5.03;;;;;;;13.30;84.79;98132.63;1704271;83;21166;-79
2021/05/14 04:46:34;;;;;;;8.50;3.65;;;;;;;13.33;83.98;98129.88;1730157;82;21033;-78
2021/05/14 04:49:01;;;;;;;10.03;2.45;;;;;;;13.28;84.62;98130.06;1738625;82;21060;-79
2021/05/14 04:51:29;;;;;;;5.78;2.83;;;;;;;13.28;84.24;98130.53;1701475;83;21034;-79
2021/05/14 04:53:57;;;;;;;6.50;2.98;;;;;;;13.28;84.40;98130.53;1705048;83;21349;-78
2021/05/14 04:56:24;;;;;;;9.53;3.30;;;;;;;13.39;84.10;98138.69;1701570;83;21315;-79
2021/05/14 04:58:50;;;;;;;10.18;3.10;;;;;;;13.44;84.08;98133.22;1697654;83;21029;-79
2021/05/14 05:01:18;;;;;;;7.60;3.45;;;;;;;13.57;83.33;98139.50;1735118;82;21068;-80
2021/05/14 05:03:51;;;;;;;15.18;3.95;;;;;;;13.53;83.60;98137.50;1738049;82;21048;-77
2021/05/14 05:06:18;;;;;;;9.60;3.35;;;;;;;13.66;83.09;98137.69;1744134;82;21052;-83
2021/05/14 05:08:45;;;;;;;11.30;3.60;;;;;;;13.61;83.08;98146.25;1731017;82;21032;-79
2021/05/14 05:11:12;;;;;;;8.25;3.25;;;;;;;13.75;82.94;98141.60;1737289;81;21184;-76
2021/05/14 05:13:39;;;;;;;11.38;3.50;;;;;;;13.85;82.78;98136.73;1741842;81;21645;-81
2021/05/14 05:16:06;;;;;;;8.38;2.83;;;;;;;13.93;82.72;98138.47;1738789;82;21056;-78
2021/05/14 05:18:32;;;;;;;10.15;2.90;;;;;;;14.05;82.31;98133.87;1734352;82;21053;-79
2021/05/14 05:20:59;;;;;;;10.75;3.00;;;;;;;14.25;82.15;98135.86;1715313;82;21053;-78
2021/05/14 05:23:26;;;;;;;6.75;2.58;;;;;;;14.46;80.54;98135.11;1711810;82;21062;-77
2021/05/14 05:25:53;;;;;;;3.67;1.82;;;;;;;14.63;79.52;98136.82;1744542;82;21084;-81
2021/05/14 05:28:30;;;;;;;6.55;2.12;;;;;;;14.72;78.79;98108.81;1743527;82;21002;-81
2021/05/14 05:30:57;;;;;;;7.62;2.35;;;;;;;15.12;76.94;98140.53;1718572;83;21096;-82
2021/05/14 05:33:23;;;;;;;5.40;1.82;;;;;;;15.36;75.92;98136.06;1740994;82;21064;-80
2021/05/14 05:35:49;;;;;;;5.92;1.67;;;;;;;15.48;74.50;98141.89;1739369;81;21112;-90
2021/05/14 05:38:24;;;;;;;6.53;2.17;;;;;;;15.62;74.43;98137.97;1728095;81;21124;-84
2021/05/14 05:43:52;;;;;;;8.90;1.72;;;;;;;15.67;69.98;98135.89;1707533;81;21134;-94
2021/05/14 05:46:21;;;;;;;3.87;1.80;;;;;;;15.77;69.50;98154.55;1720823;83;21272;-91
2021/05/14 05:48:52;;;;;;;7.35;2.52;;;;;;;15.91;70.79;98159.77;1682761;81;21213;-93
2021/05/14 05:51:18;;;;;;;4.90;2.35;;;;;;;16.08;70.66;98157.43;1670006;84;21712;-91
2021/05/14 05:53:45;;;;;;;5.85;2.35;;;;;;;16.08;70.30;98169.23;1710395;83;21067;-91
2021/05/14 05:59:19;;;;;;;8.48;2.25;;;;;;;16.16;68.77;98163.51;1724291;83;21159;-88
2021/05/14 06:01:45;;;;;;;11.53;2.30;;;;;;;16.09;69.14;98167.44;1736082;81;21156;-90
2021/05/14 06:04:17;;;;;;;8.05;2.20;;;;;;;15.94;69.57;98171.87;1713595;83;21064;-91
2021/05/14 06:06:44;;;;;;;9.65;2.42;;;;;;;15.99;69.08;98171.09;1733812;81;21064;-91
2021/05/14 06:09:11;;;;;;;5.75;1.60;;;;;;;15.87;69.75;98166.62;1711716;82;21040;-92
2021/05/14 06:11:38;;;;;;;9.65;2.50;;;;;;;15.87;68.29;98174.48;1746766;82;21179;-91
2021/05/14 06:14:04;;;;;;;7.30;2.30;;;;;;;15.75;68.91;98176.55;1739865;82;21045;-90
2021/05/14 06:16:33;;;;;;;5.25;2.25;;;;;;;15.90;68.86;98184.80;1747336;82;21534;-89
2021/05/14 06:21:48;;;;;;;7.17;2.35;;;;;;;15.87;68.17;98192.83;1684931;83;20993;-85
2021/05/14 06:24:21;;;;;;;7.25;2.77;;;;;;;15.97;69.50;98195.25;1731894;80;21104;-86
2021/05/14 06:26:48;;;;;;;9.00;2.90;;;;;;;16.13;70.21;98191.70;1706850;81;21229;-91
2021/05/14 06:29:25;;;;;;;7.87;2.77;;;;;;;16.10;69.51;98199.29;1703209;84;21040;-91
2021/05/14 06:32:27;;;;;;;7.78;2.00;;;;;;;16.26;69.36;98194.77;1702794;82;21184;-93
2021/05/14 06:34:55;;;;;;;12.20;2.40;;;;;;;16.16;67.76;98191.52;1710431;83;21123;-91
2021/05/14 06:40:32;;;;;;;7.35;2.08;;;;;;;16.18;67.51;98201.44;1694663;81;21318;-84
2021/05/14 06:43:06;;;;;;;5.22;1.42;;;;;;;16.43;67.62;98194.16;1690685;79;21037;31
2021/05/14 06:45:32;;;;;;;5.20;1.27;;;;;;;16.42;64.67;98199.89;1662956;85;21101;-90
2021/05/14 06:48:14;;;;;;;8.30;2.10;;;;;;;16.44;65.38;98200.63;1658224;85;21652;-90
2021/05/14 06:50:44;;;;;;;2.83;1.37;;;;;;;16.42;65.80;98209.07;1651503;86;21092;-87
2021/05/14 06:53:16;;;;;;;4.72;1.67;;;;;;;16.53;64.91;98214.11;1664549;86;21192;-86
2021/05/14 07:02:00;;;;;;;5.53;1.70;;;;;;;16.23;63.86;98217.72;1660970;84;21185;-91
2021/05/14 07:04:27;;;;;;;10.80;1.92;;;;;;;16.21;64.26;98233.53;1662291;86;21193;-90
2021/05/14 07:06:53;;;;;;;4.25;1.20;;;;;;;15.84;64.50;98232.34;1636801;86;21066;-89
2021/05/14 07:09:20;;;;;;;1.98;1.20;;;;;;;15.99;64.17;98238.42;1623690;88;21114;-89
2021/05/14 07:11:47;;;;;;;2.40;1.20;;;;;;;15.93;64.13;98243.56;1642519;86;21636;-91
2021/05/14 07:14:13;;;;;;;4.40;1.70;;;;;;;16.04;64.77;98239.83;1628428;86;21141;-90
2021/05/14 07:16:42;;;;;;;8.43;1.52;;;;;;;15.83;65.83;98238.50;1637110;87;21091;-90
2021/05/14 07:19:19;;;;;;;;;;;;;;;15.62;65.53;98240.62;1593827;88;21060;-87
2021/05/14 07:21:54;;;;;;;4.62;1.57;;;;;;;15.59;65.84;98249.48;1669757;83;20284;-86
2021/05/14 07:24:20;;;;;;;5.30;1.50;;;;;;;15.76;66.29;98252.93;1613268;88;21071;-90
2021/05/14 07:26:47;;;;;;;3.65;1.15;;;;;;;15.75;65.89;98260.40;1650121;86;21670;-89
2021/05/14 07:29:14;;;;;;;6.28;1.65;;;;;;;15.69;65.82;98261.57;1651896;86;21094;-90
2021/05/14 07:31:40;;;;;;;5.30;1.90;;;;;;;15.47;66.87;98231.87;1675998;85;21164;-90
2021/05/14 07:34:12;;;;;;;6.42;1.42;;;;;;;15.74;67.37;98261.32;1665528;85;21058;-88
2021/05/14 07:36:43;;;;;;;4.20;1.20;;;;;;;15.68;67.78;98269.07;1662447;86;21088;-87
2021/05/14 07:39:10;;;;;;;4.53;1.20;;;;;;;15.65;67.14;98259.59;1641276;87;21098;-85
2021/05/14 07:41:43;;;;;;;3.15;1.30;;;;;;;15.51;66.64;98263.50;1632670;87;21166;-88
2021/05/14 07:44:09;;;;;;;1.80;1.15;;;;;;;15.40;66.98;98264.58;1651375;84;21075;-89
2021/05/14 07:46:36;;;;;;;4.80;1.42;;;;;;;15.45;67.21;98270.41;1638442;83;21114;-89
2021/05/14 07:49:03;;;;;;;2.37;1.40;;;;;;;15.36;67.63;98266.55;1658662;85;21101;-92
2021/05/14 07:51:30;;;;;;;5.80;1.20;;;;;;;15.47;66.17;98276.40;1640890;87;21177;-92
2021/05/14 07:53:57;;;;;;;5.15;1.30;;;;;;;15.43;66.99;98272.27;1662080;86;21126;-93
2021/05/14 07:56:38;;;;;;;3.47;1.32;;;;;;;15.55;66.77;98286.44;1628152;86;21022;-88
2021/05/14 08:02:26;;;;;;;6.55;1.30;;;;;;;15.24;67.31;98252.84;1615653;89;21116;-86
2021/05/14 08:05:08;;;;;;;7.60;1.22;;;;;;;15.09;67.77;98280.75;1621450;89;21234;-86
2021/05/14 08:07:40;;;;;;;2.02;0.93;;;;;;;14.98;68.78;98291.84;1596892;85;21031;-87
2021/05/14 08:10:07;;;;;;;4.12;1.22;;;;;;;15.00;69.17;98295.65;1640080;87;21113;-91
2021/05/14 08:12:34;;;;;;;3.40;1.20;;;;;;;14.84;70.46;98300.45;1615199;88;21193;-89
2021/05/14 08:15:16;;;;;;;1.87;1.15;;;;;;;14.81;70.96;98301.91;1615282;88;21062;-87
2021/05/14 08:17:53;;;;;;;4.20;1.55;;;;;;;14.71;72.06;98306.80;1592858;88;21078;-86
2021/05/14 08:20:25;;;;;;;9.30;1.90;;;;;;;14.52;73.11;98302.15;1614851;86;21174;-86
2021/05/14 08:22:52;;;;;;;5.05;1.92;;;;;;;14.42;74.25;98304.41;1641506;86;21166;-86
2021/05/14 08:26:18;;;;;;;3.30;1.67;;;;;;;14.52;74.39;98303.02;1646415;85;21074;-86
2021/05/14 08:28:54;;;;;;;5.60;1.80;;;;;;;14.52;73.85;98312.61;1634288;87;21070;-86
2021/05/14 08:31:41;;;;;;;8.58;1.77;;;;;;;14.46;73.98;98304.66;1647857;85;21059;-85
2021/05/14 08:34:17;;;;;;;1.90;1.20;;;;;;;14.37;73.99;98298.59;1653343;86;21010;-86
2021/05/14 08:36:54;;;;;;;4.40;1.37;;;;;;;14.27;74.46;98308.70;1635915;87;21034;-85
2021/05/14 08:39:35;;;;;;;3.60;1.60;;;;;;;14.52;73.45;98308.69;1599162;88;21078;-85
2021/05/14 08:42:07;;;;;;;7.08;2.33;;;;;;;14.30;74.41;98326.84;1595213;89;21181;-83
2021/05/14 08:44:34;;;;;;;2.87;1.40;;;;;;;14.39;74.68;98326.81;1621666;88;21089;-90
2021/05/14 08:50:11;;;;;;;3.77;1.60;;;;;;;14.44;74.53;98330.05;1535037;86;21268;-88
2021/05/14 08:52:59;;;;;;;8.43;1.90;;;;;;;14.51;75.58;98335.31;1625317;85;21150;-90
2021/05/14 08:55:26;;;;;;;4.62;1.40;;;;;;;14.57;75.53;98332.03;1650255;85;21075;-91
2021/05/14 09:01:12;;;;;;;10.88;1.60;;;;;;;14.32;75.28;98339.82;1689815;81;21132;-90
2021/05/14 09:04:07;;;;;;;4.30;1.45;;;;;;;14.22;76.04;98345.98;1691856;84;21096;-89
2021/05/14 09:10:23;;;;;;;7.53;1.77;;;;;;;14.41;74.75;98351.11;1707193;82;21120;-89
2021/05/14 09:16:06;;;;;;;4.08;1.77;;;;;;;14.66;74.38;98353.76;1702786;83;20210;-91
2021/05/14 09:18:33;;;;;;;5.42;1.80;;;;;;;14.99;73.06;98350.25;1726494;82;21035;-90
2021/05/14 09:30:37;;;;;;;6.47;1.45;;;;;;;15.41;70.52;98356.17;1678999;85;21152;-94
2021/05/14 13:42:12;;;;;;;1.70;1.00;;;;;;;16.44;66.71;98428.88;1651099;86;21143;-94
2021/05/14 13:44:39;;;;;;;3.33;1.07;;;;;;;16.29;63.33;98425.84;1742975;82;21184;-92
2021/05/14 13:47:06;;;;;;;1.70;1.20;;;;;;;16.19;66.61;98421.60;1729489;82;21020;-93
2021/05/14 13:52:34;;;;;;;1.85;1.30;;;;;;;16.16;64.47;98436.70;1698841;84;21199;-92
2021/05/14 13:55:01;;;;;;;1.42;1.00;;;;;;;16.14;65.42;98446.43;1698135;84;21175;-94
2021/05/14 13:57:27;;;;;;;1.45;1.07;;;;;;;16.12;64.22;98437.81;1698042;84;21077;-93
2021/05/14 13:59:54;;;;;;;4.10;1.20;;;;;;;15.87;63.82;98411.69;1698204;84;21160;-93
2021/05/14 14:02:21;;;;;;;2.20;1.30;;;;;;;16.04;65.12;98436.47;1680916;84;21617;-93
2021/05/14 14:04:48;;;;;;;1.60;1.20;;;;;;;16.00;64.71;98437.58;1667163;86;21057;-93
2021/05/14 14:07:14;;;;;;;3.27;1.17;;;;;;;15.94;65.26;98441.03;1678680;85;21731;-92
2021/05/14 14:09:41;;;;;;;3.20;1.00;;;;;;;15.77;65.93;98445.91;1678639;85;21041;-91
2021/05/14 14:12:08;;;;;;;1.20;0.80;;;;;;;15.54;66.15;98456.32;1678925;85;21120;-91
2021/05/14 14:14:35;;;;;;;3.77;1.07;;;;;;;15.39;68.99;98466.72;1678864;85;21091;-93
2021/05/14 14:17:02;;;;;;;1.67;0.82;;;;;;;15.36;69.24;98460.80;1693435;84;21173;-92
2021/05/14 14:19:28;;;;;;;3.52;1.30;;;;;;;15.28;67.52;98469.10;1663457;84;21052;-92
2021/05/14 14:21:55;;;;;;;10.20;4.35;;;;;;;15.17;68.29;98479.30;1678836;84;21280;-91
2021/05/14 14:24:22;;;;;;;8.18;3.58;;;;;;;14.93;69.16;98486.69;1680650;83;20997;-91
2021/05/14 14:26:49;;;;;;;7.55;4.92;;;;;;;14.87;69.49;98482.14;1680612;85;21100;-91
2021/05/14 14:29:15;;;;;;;8.13;3.90;;;;;;;14.67;70.84;98484.95;1680815;83;21104;-92
2021/05/14 14:31:42;;;;;;;4.50;2.37;;;;;;;14.71;71.26;98504.80;1680539;85;21019;-90
2021/05/14 14:34:10;;;;;;;1.57;1.10;;;;;;;14.66;71.97;98501.13;1681048;83;21079;-92
2021/05/14 14:36:44;;;;;;;1.87;0.90;;;;;;;14.59;70.13;98512.81;1713814;82;21253;-91
2021/05/14 14:39:10;;;;;;;2.83;1.00;;;;;;;14.50;71.59;98517.16;1698774;83;21077;-92
2021/05/14 14:41:37;;;;;;;3.67;0.90;;;;;;;14.46;70.48;98516.49;1689204;84;21062;-92
2021/05/14 14:44:04;;;;;;;4.55;1.10;;;;;;;14.47;70.46;98519.48;1715058;84;21117;-92
2021/05/14 14:46:36;;;;;;;1.27;0.70;;;;;;;14.49;70.31;98530.70;1707821;82;21201;-92
2021/05/14 14:52:44;;;;;;;4.47;1.05;;;;;;;14.52;73.70;98522.72;1719159;83;21141;-94
2021/05/14 14:55:18;;;;;;;3.77;1.00;;;;;;;14.64;73.90;98509.95;1717893;83;21013;-89
2021/05/14 15:01:11;;;;;;;2.05;1.20;;;;;;;14.89;72.47;98505.16;1802776;79;21205;-94
2021/05/14 15:03:38;;;;;;;3.02;1.00;;;;;;;15.07;70.70;98508.58;1791435;79;21022;-94
2021/05/14 15:06:04;;;;;;;2.77;1.30;;;;;;;15.20;71.90;98514.47;1772113;80;21061;-94
2021/05/14 15:08:31;;;;;;;1.42;1.00;;;;;;;15.33;70.64;98512.05;1775586;79;21070;-94
2021/05/14 15:11:01;;;;;;;4.28;1.40;;;;;;;15.46;71.42;98498.21;1792721;79;21038;-93
2021/05/14 15:13:26;;;;;;;4.30;1.45;;;;;;;15.42;74.75;98503.68;1769431;79;21124;-91
2021/05/14 15:15:52;;;;;;;1.65;1.20;;;;;;;15.49;73.01;98495.41;1781869;80;21072;-92
2021/05/14 15:18:20;;;;;;;3.35;1.50;;;;;;;15.56;72.75;98490.70;1781841;80;21323;-92
2021/05/14 15:20:48;;;;;;;2.40;1.22;;;;;;;15.69;73.21;98481.20;1773998;78;21117;-92
2021/05/14 15:28:46;;;;;;;1.57;0.90;;;;;;;16.23;69.78;98479.49;1676130;84;21093;-93
2021/05/14 15:31:13;;;;;;;4.05;1.95;;;;;;;16.47;66.91;98469.37;1690750;85;21148;-92
2021/05/14 15:52:16;;;;;;;2.33;1.02;;;;;;;16.97;65.33;98445.42;1712933;80;21994;-81
2021/05/14 15:54:46;;;;;;;5.08;1.30;;;;;;;17.09;64.52;98444.69;1716252;83;21108;-81
2021/05/14 15:57:12;;;;;;;4.80;1.20;;;;;;;17.04;63.86;98446.73;1713079;82;21137;-81
2021/05/14 15:59:39;;;;;;;2.27;1.30;;;;;;;17.16;64.64;98444.66;1712638;83;21029;-82
2021/05/14 16:02:06;;;;;;;2.47;1.22;;;;;;;17.13;64.28;98444.87;1717886;83;21101;-82
2021/05/14 16:04:32;;;;;;;4.97;1.15;;;;;;;17.15;63.90;98442.98;1716978;83;21134;-82
2021/05/14 16:06:59;;;;;;;3.27;1.40;;;;;;;17.00;64.27;98447.39;1721101;82;21081;-82
2021/05/14 16:09:27;;;;;;;5.05;1.40;;;;;;;17.01;64.35;98434.65;1702186;83;21049;-81
2021/05/14 16:11:53;;;;;;;7.12;1.20;;;;;;;16.91;64.89;98432.22;1716232;82;21133;-82
2021/05/14 16:14:20;;;;;;;3.02;1.30;;;;;;;17.04;65.07;98438.86;1718883;83;21538;-82
2021/05/14 16:16:55;;;;;;;4.03;1.00;;;;;;;17.24;64.28;98433.20;1718480;82;21068;-84
2021/05/14 16:19:21;;;;;;;2.42;1.02;;;;;;;17.29;63.38;98432.45;1718950;82;21055;-81
2021/05/14 16:21:44;;;;;;;8.15;2.17;;;;;;;17.20;64.09;98434.33;1718362;82;21181;-83
2021/05/14 16:24:11;;;;;;;3.22;1.20;;;;;;;17.41;63.48;98433.94;1709116;83;21082;-82
2021/05/14 16:26:37;;;;;;;4.42;1.50;;;;;;;17.30;63.42;98437.23;1714913;83;21102;-81
2021/05/14 16:29:04;;;;;;;5.42;1.42;;;;;;;17.28;63.62;98432.54;1708065;83;21214;-80
2021/05/14 16:31:30;;;;;;;6.00;1.37;;;;;;;17.33;63.64;98430.92;1717554;83;21125;-80
2021/05/14 16:33:56;;;;;;;12.05;1.65;;;;;;;17.46;63.26;98427.91;1703921;82;21110;-81
2021/05/14 16:36:23;;;;;;;5.70;1.85;;;;;;;17.45;62.76;98438.05;1716686;82;21146;-80
2021/05/14 16:38:49;;;;;;;3.58;1.35;;;;;;;17.41;62.63;98440.03;1701060;84;21041;-80
2021/05/14 16:41:15;;;;;;;14.20;1.20;;;;;;;17.37;62.34;98445.55;1696973;84;22448;-81
2021/05/14 16:43:42;;;;;;;3.52;1.17;;;;;;;17.11;62.28;98450.69;1673087;84;21139;-80
2021/05/14 16:46:08;;;;;;;4.40;1.05;;;;;;;17.08;62.04;98454.80;1696003;84;21081;-80
2021/05/14 16:48:35;;;;;;;2.90;1.12;;;;;;;16.95;62.28;98455.17;1693382;84;21066;-79
2021/05/14 16:51:01;;;;;;;7.20;1.60;;;;;;;16.58;65.30;98453.45;1705020;84;21058;-81
2021/05/14 16:53:28;;;;;;;3.17;1.20;;;;;;;16.45;64.06;98461.19;1683670;84;21051;-80
2021/05/14 16:55:54;;;;;;;2.85;1.10;;;;;;;16.18;65.23;98468.44;1690601;84;21074;-80
2021/05/14 16:58:21;;;;;;;7.67;1.30;;;;;;;16.12;64.89;98464.03;1702061;84;21040;-81
2021/05/14 17:00:47;;;;;;;6.78;1.12;;;;;;;15.96;64.79;98464.06;1706046;84;21095;-80
2021/05/14 17:03:13;;;;;;;3.83;1.05;;;;;;;15.54;66.73;98468.98;1682890;84;21071;-81
2021/05/14 17:05:44;;;;;;;10.05;1.07;;;;;;;15.55;66.74;98485.06;1689655;84;21090;-79
2021/05/14 17:08:10;;;;;;;4.92;1.27;;;;;;;15.50;67.39;98478.78;1686925;84;21644;-79